sensor_id;sensor_type;location;lat;lon;timestamp;pressure;altitude;pressure_sealevel;temperature;humidity
48527;BME280;34317;51.660;5.824;2023-03-18T00:01:49;100720.03;;;16.57;45.68
48527;BME280;34317;51.660;5.824;2023-03-18T00:04:16;100716.72;;;16.53;45.75
48527;BME280;34317;51.660;5.824;2023-03-18T00:06:44;100712.47;;;16.50;45.91
48527;BME280;34317;51.660;5.824;2023-03-18T00:09:11;100710.72;;;16.49;45.95
48527;BME280;34317;51.660;5.824;2023-03-18T00:11:40;100705.63;;;16.46;45.83
48527;BME280;34317;51.660;5.824;2023-03-18T00:14:08;100705.63;;;16.46;46.11
48527;BME280;34317;51.660;5.824;2023-03-18T00:16:36;100695.13;;;16.43;46.22
48527;BME280;34317;51.660;5.824;2023-03-18T00:19:03;100698.75;;;16.42;46.23
48527;BME280;34317;51.660;5.824;2023-03-18T00:21:31;100691.72;;;16.41;46.31
48527;BME280;34317;51.660;5.824;2023-03-18T00:23:58;100699.00;;;16.39;46.32
48527;BME280;34317;51.660;5.824;2023-03-18T00:26:27;100696.34;;;16.39;46.65
48527;BME280;34317;51.660;5.824;2023-03-18T00:28:55;100706.28;;;16.37;46.51
48527;BME280;34317;51.660;5.824;2023-03-18T00:31:24;100712.56;;;16.36;46.64
48527;BME280;34317;51.660;5.824;2023-03-18T00:33:52;100706.50;;;16.34;46.68
48527;BME280;34317;51.660;5.824;2023-03-18T00:36:19;100712.69;;;16.34;46.84
48527;BME280;34317;51.660;5.824;2023-03-18T00:38:53;100710.13;;;16.33;46.77
48527;BME280;34317;51.660;5.824;2023-03-18T00:41:27;100713.03;;;16.30;46.95
48527;BME280;34317;51.660;5.824;2023-03-18T00:43:55;100726.38;;;16.30;46.68
48527;BME280;34317;51.660;5.824;2023-03-18T00:46:26;100727.44;;;16.27;46.94
48527;BME280;34317;51.660;5.824;2023-03-18T00:48:55;100731.94;;;16.27;47.05
48527;BME280;34317;51.660;5.824;2023-03-18T00:51:24;100728.53;;;16.25;47.18
48527;BME280;34317;51.660;5.824;2023-03-18T00:53:55;100726.84;;;16.24;47.27
48527;BME280;34317;51.660;5.824;2023-03-18T00:56:25;100729.50;;;16.24;47.30
48527;BME280;34317;51.660;5.824;2023-03-18T00:58:53;100723.38;;;16.22;47.42
48527;BME280;34317;51.660;5.824;2023-03-18T01:01:21;100734.06;;;16.22;47.30
48527;BME280;34317;51.660;5.824;2023-03-18T01:03:50;100725.09;;;16.23;47.43
48527;BME280;34317;51.660;5.824;2023-03-18T01:06:24;100733.22;;;16.21;47.60
48527;BME280;34317;51.660;5.824;2023-03-18T01:08:52;100743.06;;;16.21;47.40
48527;BME280;34317;51.660;5.824;2023-03-18T01:11:20;100736.00;;;16.20;47.62
48527;BME280;34317;51.660;5.824;2023-03-18T01:13:48;100729.81;;;16.19;47.80
48527;BME280;34317;51.660;5.824;2023-03-18T01:16:16;100732.59;;;16.18;47.82
48527;BME280;34317;51.660;5.824;2023-03-18T01:18:44;100741.59;;;16.17;47.73
48527;BME280;34317;51.660;5.824;2023-03-18T01:21:11;100745.19;;;16.15;47.79
48527;BME280;34317;51.660;5.824;2023-03-18T01:23:47;100736.44;;;16.13;48.04
48527;BME280;34317;51.660;5.824;2023-03-18T01:26:14;100746.28;;;16.13;48.11
48527;BME280;34317;51.660;5.824;2023-03-18T01:28:44;100749.06;;;16.11;48.16
48527;BME280;34317;51.660;5.824;2023-03-18T01:31:11;100745.63;;;16.09;48.20
48527;BME280;34317;51.660;5.824;2023-03-18T01:33:40;100733.22;;;16.08;48.38
48527;BME280;34317;51.660;5.824;2023-03-18T01:36:09;100735.16;;;16.06;48.54
48527;BME280;34317;51.660;5.824;2023-03-18T01:38:36;100731.75;;;16.04;48.70
48527;BME280;34317;51.660;5.824;2023-03-18T01:41:11;100735.38;;;16.03;48.93
48527;BME280;34317;51.660;5.824;2023-03-18T01:43:41;100729.31;;;16.01;49.17
48527;BME280;34317;51.660;5.824;2023-03-18T01:49:01;100735.78;;;15.97;49.50
48527;BME280;34317;51.660;5.824;2023-03-18T01:51:31;100746.72;;;15.94;49.45
48527;BME280;34317;51.660;5.824;2023-03-18T01:54:00;100731.88;;;15.90;49.82
48527;BME280;34317;51.660;5.824;2023-03-18T01:56:29;100738.16;;;15.89;49.88
48527;BME280;34317;51.660;5.824;2023-03-18T01:58:58;100729.41;;;15.87;50.05
48527;BME280;34317;51.660;5.824;2023-03-18T02:01:31;100722.31;;;15.86;50.46
48527;BME280;34317;51.660;5.824;2023-03-18T02:04:05;100722.31;;;15.86;50.38
48527;BME280;34317;51.660;5.824;2023-03-18T02:06:33;100727.66;;;15.86;50.36
48527;BME280;34317;51.660;5.824;2023-03-18T02:09:00;100725.97;;;15.85;50.45
48527;BME280;34317;51.660;5.824;2023-03-18T02:11:34;100721.69;;;15.82;50.80
48527;BME280;34317;51.660;5.824;2023-03-18T02:14:02;100736.84;;;15.82;50.73
48527;BME280;34317;51.660;5.824;2023-03-18T02:16:46;100737.09;;;15.79;50.83
48527;BME280;34317;51.660;5.824;2023-03-18T02:19:25;100735.38;;;15.77;50.98
48527;BME280;34317;51.660;5.824;2023-03-18T02:27:47;100732.34;;;15.69;51.21
48527;BME280;34317;51.660;5.824;2023-03-18T02:30:20;100735.00;;;15.69;51.49
48527;BME280;34317;51.660;5.824;2023-03-18T02:32:51;100734.47;;;15.64;50.59
48527;BME280;34317;51.660;5.824;2023-03-18T02:35:20;100743.41;;;15.63;51.05
48527;BME280;34317;51.660;5.824;2023-03-18T02:37:49;100749.00;;;15.60;51.24
48527;BME280;34317;51.660;5.824;2023-03-18T02:40:23;100740.97;;;15.60;51.78
48527;BME280;34317;51.660;5.824;2023-03-18T02:42:51;100743.66;;;15.60;51.72
48527;BME280;34317;51.660;5.824;2023-03-18T02:45:54;100749.00;;;15.60;51.88
48527;BME280;34317;51.660;5.824;2023-03-18T02:48:19;100748.13;;;15.60;51.91
48527;BME280;34317;51.660;5.824;2023-03-18T02:50:49;100756.25;;;15.58;52.04
48527;BME280;34317;51.660;5.824;2023-03-18T02:53:17;100757.19;;;15.57;52.08
48527;BME280;34317;51.660;5.824;2023-03-18T02:55:44;100765.19;;;15.57;52.33
48527;BME280;34317;51.660;5.824;2023-03-18T02:58:11;100772.47;;;15.55;52.43
48527;BME280;34317;51.660;5.824;2023-03-18T03:00:40;100770.75;;;15.54;52.60
48527;BME280;34317;51.660;5.824;2023-03-18T03:03:07;100772.66;;;15.52;52.63
48527;BME280;34317;51.660;5.824;2023-03-18T03:05:34;100779.91;;;15.50;52.74
48527;BME280;34317;51.660;5.824;2023-03-18T03:08:02;100776.50;;;15.48;53.09
48527;BME280;34317;51.660;5.824;2023-03-18T03:10:33;100775.75;;;15.46;53.22
48527;BME280;34317;51.660;5.824;2023-03-18T03:13:00;100770.41;;;15.46;53.43
48527;BME280;34317;51.660;5.824;2023-03-18T03:15:28;100768.81;;;15.43;53.52
48527;BME280;34317;51.660;5.824;2023-03-18T03:17:58;100778.63;;;15.43;53.49
48527;BME280;34317;51.660;5.824;2023-03-18T03:20:25;100774.16;;;15.43;53.55
48527;BME280;34317;51.660;5.824;2023-03-18T03:22:53;100789.31;;;15.43;53.81
48527;BME280;34317;51.660;5.824;2023-03-18T03:25:21;100793.78;;;15.42;53.77
48527;BME280;34317;51.660;5.824;2023-03-18T03:27:48;100791.19;;;15.41;53.97
48527;BME280;34317;51.660;5.824;2023-03-18T03:30:17;100792.16;;;15.40;54.00
48527;BME280;34317;51.660;5.824;2023-03-18T03:32:44;100791.41;;;15.37;54.08
48527;BME280;34317;51.660;5.824;2023-03-18T03:35:15;100793.34;;;15.35;54.35
48527;BME280;34317;51.660;5.824;2023-03-18T03:37:44;100797.16;;;15.31;54.35
48527;BME280;34317;51.660;5.824;2023-03-18T03:40:14;100797.34;;;15.28;54.60
48527;BME280;34317;51.660;5.824;2023-03-18T03:42:43;100800.97;;;15.27;54.71
48527;BME280;34317;51.660;5.824;2023-03-18T03:45:12;100803.75;;;15.26;54.80
48527;BME280;34317;51.660;5.824;2023-03-18T03:47:41;100805.66;;;15.24;54.78
48527;BME280;34317;51.660;5.824;2023-03-18T03:50:10;100804.81;;;15.23;54.77
48527;BME280;34317;51.660;5.824;2023-03-18T03:52:38;100806.72;;;15.21;54.90
48527;BME280;34317;51.660;5.824;2023-03-18T03:55:07;100814.91;;;15.18;54.90
48527;BME280;34317;51.660;5.824;2023-03-18T03:57:35;100808.63;;;15.19;55.10
48527;BME280;34317;51.660;5.824;2023-03-18T04:00:06;100809.78;;;15.15;55.38
48527;BME280;34317;51.660;5.824;2023-03-18T04:02:43;100809.97;;;15.12;55.33
48527;BME280;34317;51.660;5.824;2023-03-18T04:05:14;100808.28;;;15.11;55.42
48527;BME280;34317;51.660;5.824;2023-03-18T04:07:43;100815.53;;;15.09;55.43
48527;BME280;34317;51.660;5.824;2023-03-18T04:10:13;100811.97;;;15.08;55.61
48527;BME280;34317;51.660;5.824;2023-03-18T04:12:42;100813.81;;;15.08;55.71
48527;BME280;34317;51.660;5.824;2023-03-18T04:15:13;100817.41;;;15.07;55.89
48527;BME280;34317;51.660;5.824;2023-03-18T04:17:43;100814.75;;;15.07;55.85
48527;BME280;34317;51.660;5.824;2023-03-18T04:20:15;100813.03;;;15.06;55.82
48527;BME280;34317;51.660;5.824;2023-03-18T04:22:44;100824.78;;;15.03;55.90
48527;BME280;34317;51.660;5.824;2023-03-18T04:25:12;100823.91;;;15.03;56.06
48527;BME280;34317;51.660;5.824;2023-03-18T04:27:43;100825.81;;;15.01;56.25
48527;BME280;34317;51.660;5.824;2023-03-18T04:30:12;100830.31;;;15.00;56.35
48527;BME280;34317;51.660;5.824;2023-03-18T04:32:59;100834.97;;;14.96;56.25
48527;BME280;34317;51.660;5.824;2023-03-18T04:35:29;100834.22;;;14.94;56.39
48527;BME280;34317;51.660;5.824;2023-03-18T04:37:58;100820.88;;;14.94;56.59
48527;BME280;34317;51.660;5.824;2023-03-18T04:40:26;100817.25;;;14.95;56.52
48527;BME280;34317;51.660;5.824;2023-03-18T04:42:54;100816.31;;;14.96;56.61
48527;BME280;34317;51.660;5.824;2023-03-18T04:45:24;100820.69;;;14.97;56.67
48527;BME280;34317;51.660;5.824;2023-03-18T04:47:55;100827.72;;;14.98;56.65
48527;BME280;34317;51.660;5.824;2023-03-18T04:50:24;100826.78;;;14.99;56.77
48527;BME280;34317;51.660;5.824;2023-03-18T04:52:52;100825.81;;;15.01;56.87
48527;BME280;34317;51.660;5.824;2023-03-18T04:55:24;100822.28;;;15.00;56.72
48527;BME280;34317;51.660;5.824;2023-03-18T04:57:51;100826.03;;;14.97;56.84
48527;BME280;34317;51.660;5.824;2023-03-18T05:00:21;100824.22;;;14.98;57.02
48527;BME280;34317;51.660;5.824;2023-03-18T05:02:54;100834.03;;;14.97;57.00
48527;BME280;34317;51.660;5.824;2023-03-18T05:05:24;100828.69;;;14.97;56.93
48527;BME280;34317;51.660;5.824;2023-03-18T05:07:52;100842.03;;;14.97;56.98
48527;BME280;34317;51.660;5.824;2023-03-18T05:10:20;100835.81;;;14.97;57.13
48527;BME280;34317;51.660;5.824;2023-03-18T05:12:48;100841.25;;;14.95;57.15
48527;BME280;34317;51.660;5.824;2023-03-18T05:15:23;100837.72;;;14.95;57.23
48527;BME280;34317;51.660;5.824;2023-03-18T05:17:54;100834.22;;;14.94;57.29
48527;BME280;34317;51.660;5.824;2023-03-18T05:20:22;100836.88;;;14.94;57.19
48527;BME280;34317;51.660;5.824;2023-03-18T05:22:50;100843.91;;;14.95;57.32
48527;BME280;34317;51.660;5.824;2023-03-18T05:25:29;100841.38;;;14.94;57.32
48527;BME280;34317;51.660;5.824;2023-03-18T05:27:57;100848.47;;;14.93;57.38
48527;BME280;34317;51.660;5.824;2023-03-18T05:30:33;100852.13;;;14.92;57.31
48527;BME280;34317;51.660;5.824;2023-03-18T05:33:04;100853.06;;;14.91;57.43
48527;BME280;34317;51.660;5.824;2023-03-18T05:35:43;100858.41;;;14.91;57.48
48527;BME280;34317;51.660;5.824;2023-03-18T05:38:10;100847.94;;;14.88;57.62
48527;BME280;34317;51.660;5.824;2023-03-18T05:40:38;100850.59;;;14.88;57.74
48527;BME280;34317;51.660;5.824;2023-03-18T05:43:12;100854.97;;;14.89;57.62
48527;BME280;34317;51.660;5.824;2023-03-18T05:45:47;100860.31;;;14.89;57.50
48527;BME280;34317;51.660;5.824;2023-03-18T05:48:16;100854.97;;;14.89;57.51
48527;BME280;34317;51.660;5.824;2023-03-18T05:50:51;100854.13;;;14.89;57.58
48527;BME280;34317;51.660;5.824;2023-03-18T05:53:23;100860.31;;;14.89;57.65
48527;BME280;34317;51.660;5.824;2023-03-18T05:55:58;100854.97;;;14.89;57.58
48527;BME280;34317;51.660;5.824;2023-03-18T05:58:26;100847.94;;;14.88;57.77
48527;BME280;34317;51.660;5.824;2023-03-18T06:01:10;100853.28;;;14.88;57.78
48527;BME280;34317;51.660;5.824;2023-03-18T06:03:40;100860.31;;;14.89;57.81
48527;BME280;34317;51.660;5.824;2023-03-18T06:06:07;100869.28;;;14.88;57.74
48527;BME280;34317;51.660;5.824;2023-03-18T06:08:37;100872.69;;;14.90;57.99
48527;BME280;34317;51.660;5.824;2023-03-18T06:11:04;100872.69;;;14.90;57.93
48527;BME280;34317;51.660;5.824;2023-03-18T06:13:32;100876.31;;;14.89;58.15
48527;BME280;34317;51.660;5.824;2023-03-18T06:16:00;100881.63;;;14.89;57.95
48527;BME280;34317;51.660;5.824;2023-03-18T06:18:29;100878.22;;;14.87;58.06
48527;BME280;34317;51.660;5.824;2023-03-18T06:20:56;100888.03;;;14.87;58.17
48527;BME280;34317;51.660;5.824;2023-03-18T06:23:23;100881.84;;;14.86;58.23
48527;BME280;34317;51.660;5.824;2023-03-18T06:25:51;100887.19;;;14.86;58.21
48527;BME280;34317;51.660;5.824;2023-03-18T06:28:24;100881.84;;;14.86;58.35
48527;BME280;34317;51.660;5.824;2023-03-18T06:30:56;100885.28;;;14.88;58.42
48527;BME280;34317;51.660;5.824;2023-03-18T06:33:24;100883.38;;;14.90;58.38
48527;BME280;34317;51.660;5.824;2023-03-18T06:35:52;100880.63;;;14.92;58.40
48527;BME280;34317;51.660;5.824;2023-03-18T06:38:21;100886.78;;;14.92;58.21
48527;BME280;34317;51.660;5.824;2023-03-18T06:40:49;100886.78;;;14.92;58.33
48527;BME280;34317;51.660;5.824;2023-03-18T06:43:17;100884.88;;;14.94;58.23
48527;BME280;34317;51.660;5.824;2023-03-18T06:45:45;100891.91;;;14.95;58.16
48527;BME280;34317;51.660;5.824;2023-03-18T06:48:12;100887.47;;;14.96;58.22
48527;BME280;34317;51.660;5.824;2023-03-18T06:50:42;100893.66;;;14.96;58.18
48527;BME280;34317;51.660;5.824;2023-03-18T06:53:23;100894.22;;;15.02;58.39
48527;BME280;34317;51.660;5.824;2023-03-18T06:55:52;100896.50;;;15.08;58.32
48527;BME280;34317;51.660;5.824;2023-03-18T06:58:23;100894.19;;;15.16;58.34
48527;BME280;34317;51.660;5.824;2023-03-18T07:00:59;100903.44;;;15.25;58.12
48527;BME280;34317;51.660;5.824;2023-03-18T07:03:31;100898.34;;;15.34;58.21
48527;BME280;34317;51.660;5.824;2023-03-18T07:05:59;100896.81;;;15.45;58.05
48527;BME280;34317;51.660;5.824;2023-03-18T07:08:28;100904.25;;;15.54;58.21
48527;BME280;34317;51.660;5.824;2023-03-18T07:10:55;100908.94;;;15.63;58.11
48527;BME280;34317;51.660;5.824;2023-03-18T07:13:25;100914.47;;;15.74;57.74
48527;BME280;34317;51.660;5.824;2023-03-18T07:15:52;100921.03;;;15.83;57.87
48527;BME280;34317;51.660;5.824;2023-03-18T07:18:23;100924.03;;;15.91;57.70
48527;BME280;34317;51.660;5.824;2023-03-18T07:20:50;100929.66;;;16.01;57.87
48527;BME280;34317;51.660;5.824;2023-03-18T07:23:17;100925.59;;;16.08;57.70
48527;BME280;34317;51.660;5.824;2023-03-18T07:25:44;100928.81;;;16.13;57.31
48527;BME280;34317;51.660;5.824;2023-03-18T07:28:12;100932.25;;;16.15;57.44
48527;BME280;34317;51.660;5.824;2023-03-18T07:30:39;100939.09;;;16.20;57.51
48527;BME280;34317;51.660;5.824;2023-03-18T07:33:06;100942.31;;;16.25;57.12
48527;BME280;34317;51.660;5.824;2023-03-18T07:35:36;100939.56;;;16.26;56.98
48527;BME280;34317;51.660;5.824;2023-03-18T07:38:07;100944.06;;;16.26;56.85
48527;BME280;34317;51.660;5.824;2023-03-18T07:40:36;100942.31;;;16.25;56.44
48527;BME280;34317;51.660;5.824;2023-03-18T07:43:04;100945.75;;;16.27;56.92
48527;BME280;34317;51.660;5.824;2023-03-18T07:45:32;100938.47;;;16.29;56.71
48527;BME280;34317;51.660;5.824;2023-03-18T07:48:00;100947.47;;;16.28;56.83
48527;BME280;34317;51.660;5.824;2023-03-18T07:50:27;100950.25;;;16.26;56.94
48527;BME280;34317;51.660;5.824;2023-03-18T07:52:55;100950.16;;;16.28;56.86
48527;BME280;34317;51.660;5.824;2023-03-18T07:55:23;100958.16;;;16.28;56.65
48527;BME280;34317;51.660;5.824;2023-03-18T07:57:50;100961.78;;;16.27;56.51
48527;BME280;34317;51.660;5.824;2023-03-18T08:00:18;100959.09;;;16.27;56.64
48527;BME280;34317;51.660;5.824;2023-03-18T08:02:45;100970.56;;;16.29;56.67
48527;BME280;34317;51.660;5.824;2023-03-18T08:05:12;100979.31;;;16.31;56.71
48527;BME280;34317;51.660;5.824;2023-03-18T08:07:40;100968.44;;;16.34;56.84
48527;BME280;34317;51.660;5.824;2023-03-18T08:10:08;100975.09;;;16.41;56.93
48527;BME280;34317;51.660;5.824;2023-03-18T08:12:36;100969.31;;;16.47;56.77
48527;BME280;34317;51.660;5.824;2023-03-18T08:15:19;100973.28;;;16.54;56.83
48527;BME280;34317;51.660;5.824;2023-03-18T08:17:48;100979.19;;;16.60;56.81
48527;BME280;34317;51.660;5.824;2023-03-18T08:20:17;100975.09;;;16.67;56.63
48527;BME280;34317;51.660;5.824;2023-03-18T08:22:44;100981.75;;;16.74;56.71
48527;BME280;34317;51.660;5.824;2023-03-18T08:25:11;100974.13;;;16.82;56.61
48527;BME280;34317;51.660;5.824;2023-03-18T08:27:39;100970.03;;;16.89;56.43
48527;BME280;34317;51.660;5.824;2023-03-18T08:30:08;100968.13;;;16.91;56.43
48527;BME280;34317;51.660;5.824;2023-03-18T08:32:35;100965.00;;;16.98;56.26
48527;BME280;34317;51.660;5.824;2023-03-18T08:35:03;100963.63;;;17.05;56.14
48527;BME280;34317;51.660;5.824;2023-03-18T08:37:31;100971.94;;;17.13;56.13
48527;BME280;34317;51.660;5.824;2023-03-18T08:39:58;100971.31;;;17.22;55.86
48527;BME280;34317;51.660;5.824;2023-03-18T08:42:26;100962.09;;;17.26;55.74
48527;BME280;34317;51.660;5.824;2023-03-18T08:44:53;100972.34;;;17.32;55.69
48527;BME280;34317;51.660;5.824;2023-03-18T08:47:21;100965.50;;;17.41;55.41
48527;BME280;34317;51.660;5.824;2023-03-18T08:49:53;100965.03;;;17.47;55.54
48527;BME280;34317;51.660;5.824;2023-03-18T08:52:20;100973.50;;;17.54;55.59
48527;BME280;34317;51.660;5.824;2023-03-18T08:54:48;100980.00;;;17.63;55.26
48527;BME280;34317;51.660;5.824;2023-03-18T08:57:15;100983.84;;;17.71;55.13
48527;BME280;34317;51.660;5.824;2023-03-18T08:59:42;100981.44;;;17.80;55.15
48527;BME280;34317;51.660;5.824;2023-03-18T09:02:13;100969.25;;;17.88;54.99
48527;BME280;34317;51.660;5.824;2023-03-18T09:04:44;100974.25;;;17.93;54.61
48527;BME280;34317;51.660;5.824;2023-03-18T09:07:12;100974.13;;;17.95;54.56
48527;BME280;34317;51.660;5.824;2023-03-18T09:09:39;100966.72;;;17.98;54.34
48527;BME280;34317;51.660;5.824;2023-03-18T09:12:10;100973.69;;;18.01;53.94
48527;BME280;34317;51.660;5.824;2023-03-18T09:14:41;100970.03;;;18.02;53.90
48527;BME280;34317;51.660;5.824;2023-03-18T09:17:10;100974.75;;;17.98;53.50
48527;BME280;34317;51.660;5.824;2023-03-18T09:19:37;100976.69;;;17.96;53.61
48527;BME280;34317;51.660;5.824;2023-03-18T09:22:04;100974.03;;;17.96;53.38
48527;BME280;34317;51.660;5.824;2023-03-18T09:24:33;100975.84;;;17.96;53.57
48527;BME280;34317;51.660;5.824;2023-03-18T09:27:01;100972.81;;;18.00;53.52
48527;BME280;34317;51.660;5.824;2023-03-18T09:29:28;100972.59;;;18.03;53.67
48527;BME280;34317;51.660;5.824;2023-03-18T09:31:56;100973.13;;;18.08;53.50
48527;BME280;34317;51.660;5.824;2023-03-18T09:34:23;100971.91;;;18.13;53.43
48527;BME280;34317;51.660;5.824;2023-03-18T09:36:50;100976.59;;;18.22;53.45
48527;BME280;34317;51.660;5.824;2023-03-18T09:39:19;100979.31;;;18.33;53.50
48527;BME280;34317;51.660;5.824;2023-03-18T09:44:34;100975.97;;;18.54;53.24
48527;BME280;34317;51.660;5.824;2023-03-18T09:47:27;100986.00;;;18.63;53.01
48527;BME280;34317;51.660;5.824;2023-03-18T09:50:25;100983.81;;;18.68;52.65
48527;BME280;34317;51.660;5.824;2023-03-18T09:55:55;100992.75;;;18.80;52.74
48527;BME280;34317;51.660;5.824;2023-03-18T09:58:26;100993.16;;;18.86;52.46
48527;BME280;34317;51.660;5.824;2023-03-18T10:01:00;100999.66;;;18.95;52.23
48527;BME280;34317;51.660;5.824;2023-03-18T10:03:41;100997.31;;;19.02;51.91
48527;BME280;34317;51.660;5.824;2023-03-18T10:06:15;100992.34;;;19.09;52.06
48527;BME280;34317;51.660;5.824;2023-03-18T10:11:32;101002.72;;;19.24;51.55
48527;BME280;34317;51.660;5.824;2023-03-18T10:17:05;101009.69;;;19.38;51.42
48527;BME280;34317;51.660;5.824;2023-03-18T10:20:34;101006.38;;;19.46;51.50
48527;BME280;34317;51.660;5.824;2023-03-18T10:23:19;100996.59;;;19.56;51.20
48527;BME280;34317;51.660;5.824;2023-03-18T10:25:46;100992.44;;;19.63;50.86
48527;BME280;34317;51.660;5.824;2023-03-18T10:28:53;100992.06;;;19.68;50.70
48527;BME280;34317;51.660;5.824;2023-03-18T10:34:11;100998.56;;;19.77;50.53
48527;BME280;34317;51.660;5.824;2023-03-18T10:36:54;101001.47;;;19.85;50.45
48527;BME280;34317;51.660;5.824;2023-03-18T10:39:27;100999.03;;;19.93;50.87
48527;BME280;34317;51.660;5.824;2023-03-18T10:41:57;100992.91;;;20.02;50.70
48527;BME280;34317;51.660;5.824;2023-03-18T10:44:33;100995.78;;;20.11;50.49
48527;BME280;34317;51.660;5.824;2023-03-18T10:47:10;100995.03;;;20.20;49.81
48527;BME280;34317;51.660;5.824;2023-03-18T10:49:44;100994.78;;;20.23;49.48
48527;BME280;34317;51.660;5.824;2023-03-18T10:52:39;100993.66;;;20.26;49.49
48527;BME280;34317;51.660;5.824;2023-03-18T10:55:12;101000.25;;;20.33;49.31
48527;BME280;34317;51.660;5.824;2023-03-18T10:57:41;100979.91;;;20.40;49.27
48527;BME280;34317;51.660;5.824;2023-03-18T11:00:25;100981.97;;;20.48;49.21
48527;BME280;34317;51.660;5.824;2023-03-18T11:02:54;100974.06;;;20.56;48.92
48527;BME280;34317;51.660;5.824;2023-03-18T11:05:25;100977.16;;;20.63;48.58
48527;BME280;34317;51.660;5.824;2023-03-18T11:07:55;100979.56;;;20.66;48.49
48527;BME280;34317;51.660;5.824;2023-03-18T11:10:32;100972.78;;;20.71;48.18
48527;BME280;34317;51.660;5.824;2023-03-18T11:13:01;100971.41;;;20.77;47.84
48527;BME280;34317;51.660;5.824;2023-03-18T11:15:35;100973.72;;;20.82;47.77
48527;BME280;34317;51.660;5.824;2023-03-18T11:18:04;100969.78;;;20.86;47.88
48527;BME280;34317;51.660;5.824;2023-03-18T11:20:38;100968.38;;;20.91;48.11
48527;BME280;34317;51.660;5.824;2023-03-18T11:23:29;100963.88;;;21.02;47.76
48527;BME280;34317;51.660;5.824;2023-03-18T11:26:26;100969.31;;;21.11;47.64
48527;BME280;34317;51.660;5.824;2023-03-18T11:29:01;100963.41;;;21.17;47.35
48527;BME280;34317;51.660;5.824;2023-03-18T11:31:30;100954.06;;;21.22;47.17
48527;BME280;34317;51.660;5.824;2023-03-18T11:33:58;100949.84;;;21.29;46.92
48527;BME280;34317;51.660;5.824;2023-03-18T11:36:27;100959.81;;;21.38;46.42
48527;BME280;34317;51.660;5.824;2023-03-18T11:39:02;100966.63;;;21.42;46.21
48527;BME280;34317;51.660;5.824;2023-03-18T11:41:29;100968.31;;;21.43;45.90
48527;BME280;34317;51.660;5.824;2023-03-18T11:44:01;100966.88;;;21.39;45.69
48527;BME280;34317;51.660;5.824;2023-03-18T11:46:43;100976.25;;;21.35;45.66
48527;BME280;34317;51.660;5.824;2023-03-18T11:49:14;100964.03;;;21.31;45.45
48527;BME280;34317;51.660;5.824;2023-03-18T11:57:15;100975.88;;;21.18;45.38
48527;BME280;34317;51.660;5.824;2023-03-18T12:08:01;100980.38;;;21.08;45.35
48527;BME280;34317;51.660;5.824;2023-03-18T12:10:41;100972.56;;;21.05;45.19
48527;BME280;34317;51.660;5.824;2023-03-18T12:19:19;100977.78;;;20.97;45.24
48527;BME280;34317;51.660;5.824;2023-03-18T12:36:19;100973.72;;;20.82;45.44
48527;BME280;34317;51.660;5.824;2023-03-18T12:41:41;100970.81;;;20.73;45.46
48527;BME280;34317;51.660;5.824;2023-03-18T12:47:11;100975.28;;;20.63;45.47
48527;BME280;34317;51.660;5.824;2023-03-18T12:49:48;100973.56;;;20.62;45.25
48527;BME280;34317;51.660;5.824;2023-03-18T12:52:28;100966.97;;;20.55;45.09
48527;BME280;34317;51.660;5.824;2023-03-18T12:57:47;100976.94;;;20.43;44.95
48527;BME280;34317;51.660;5.824;2023-03-18T13:00:38;100987.50;;;20.35;44.76
48527;BME280;34317;51.660;5.824;2023-03-18T13:05:52;100977.66;;;20.24;44.54
48527;BME280;34317;51.660;5.824;2023-03-18T13:11:10;100979.84;;;20.19;45.00
48527;BME280;34317;51.660;5.824;2023-03-18T13:13:43;100970.22;;;20.16;45.08
48527;BME280;34317;51.660;5.824;2023-03-18T13:16:12;100969.25;;;20.17;45.08
48527;BME280;34317;51.660;5.824;2023-03-18T13:18:45;100966.41;;;20.19;45.43
48527;BME280;34317;51.660;5.824;2023-03-18T13:21:19;100969.34;;;20.27;45.51
48527;BME280;34317;51.660;5.824;2023-03-18T13:29:27;100965.88;;;20.57;45.75
48527;BME280;34317;51.660;5.824;2023-03-18T13:32:32;100966.94;;;20.66;45.67
48527;BME280;34317;51.660;5.824;2023-03-18T13:38:09;100958.34;;;20.72;44.85
48527;BME280;34317;51.660;5.824;2023-03-18T13:41:11;100962.63;;;20.75;45.09
48527;BME280;34317;51.660;5.824;2023-03-18T13:43:43;100963.47;;;20.75;44.67
48527;BME280;34317;51.660;5.824;2023-03-18T13:46:18;100968.84;;;20.75;44.83
48527;BME280;34317;51.660;5.824;2023-03-18T13:48:47;100961.78;;;20.74;44.89
48527;BME280;34317;51.660;5.824;2023-03-18T13:54:13;100965.25;;;20.65;45.20
48527;BME280;34317;51.660;5.824;2023-03-18T13:56:48;100965.28;;;20.54;45.30
48527;BME280;34317;51.660;5.824;2023-03-18T14:04:51;100952.13;;;20.39;45.86
48527;BME280;34317;51.660;5.824;2023-03-18T14:07:20;100957.53;;;20.39;46.09
48527;BME280;34317;51.660;5.824;2023-03-18T14:09:58;100954.81;;;20.39;45.94
48527;BME280;34317;51.660;5.824;2023-03-18T14:12:46;100950.44;;;20.38;45.93
48527;BME280;34317;51.660;5.824;2023-03-18T14:17:46;100940.66;;;20.37;45.68
48527;BME280;34317;51.660;5.824;2023-03-18T14:20:22;100938.09;;;20.36;45.76
48527;BME280;34317;51.660;5.824;2023-03-18T14:22:54;100942.63;;;20.35;45.12
48527;BME280;34317;51.660;5.824;2023-03-18T14:36:04;100950.28;;;20.19;44.35
48527;BME280;34317;51.660;5.824;2023-03-18T14:38:46;100947.13;;;20.14;44.19
48527;BME280;34317;51.660;5.824;2023-03-18T14:41:20;100942.00;;;20.11;44.15
48527;BME280;34317;51.660;5.824;2023-03-18T14:43:59;100930.53;;;20.09;44.16
48527;BME280;34317;51.660;5.824;2023-03-18T14:46:34;100927.59;;;20.12;44.44
48527;BME280;34317;51.660;5.824;2023-03-18T14:49:41;100928.50;;;20.22;44.61
48527;BME280;34317;51.660;5.824;2023-03-18T14:52:37;100925.50;;;20.36;44.46
48527;BME280;34317;51.660;5.824;2023-03-18T14:55:17;100929.84;;;20.49;44.32